sensor_id;sensor_type;location;lat;lon;timestamp;P1;durP1;ratioP1;P2;durP2;ratioP2
9398;SDS011;4739;49.334;8.792;2022-11-15T00:00:51;18.90;;;9.30;;
9398;SDS011;4739;49.334;8.792;2022-11-15T00:03:18;14.03;;;8.50;;
9398;SDS011;4739;49.334;8.792;2022-11-15T00:05:44;11.83;;;7.00;;
9398;SDS011;4739;49.334;8.792;2022-11-15T00:08:10;12.43;;;8.07;;
9398;SDS011;4739;49.334;8.792;2022-11-15T00:10:37;13.63;;;8.37;;
9398;SDS011;4739;49.334;8.792;2022-11-15T00:13:09;11.43;;;8.10;;
9398;SDS011;4739;49.334;8.792;2022-11-15T00:15:40;12.97;;;8.20;;
9398;SDS011;4739;49.334;8.792;2022-11-15T00:18:06;10.00;;;7.80;;
9398;SDS011;4739;49.334;8.792;2022-11-15T00:20:37;12.10;;;7.93;;
9398;SDS011;4739;49.334;8.792;2022-11-15T00:23:03;10.43;;;8.07;;
9398;SDS011;4739;49.334;8.792;2022-11-15T00:25:29;9.43;;;7.73;;
9398;SDS011;4739;49.334;8.792;2022-11-15T00:27:59;8.73;;;7.27;;
9398;SDS011;4739;49.334;8.792;2022-11-15T00:30:25;9.13;;;7.67;;
9398;SDS011;4739;49.334;8.792;2022-11-15T00:32:51;9.53;;;7.70;;
9398;SDS011;4739;49.334;8.792;2022-11-15T00:35:17;9.20;;;7.83;;
9398;SDS011;4739;49.334;8.792;2022-11-15T00:37:43;8.60;;;7.60;;
9398;SDS011;4739;49.334;8.792;2022-11-15T00:40:09;9.40;;;7.80;;
9398;SDS011;4739;49.334;8.792;2022-11-15T00:42:37;7.57;;;6.90;;
9398;SDS011;4739;49.334;8.792;2022-11-15T00:45:03;8.80;;;6.90;;
9398;SDS011;4739;49.334;8.792;2022-11-15T00:47:29;8.37;;;6.97;;
9398;SDS011;4739;49.334;8.792;2022-11-15T00:49:54;7.40;;;6.70;;
9398;SDS011;4739;49.334;8.792;2022-11-15T00:52:20;8.90;;;6.37;;
9398;SDS011;4739;49.334;8.792;2022-11-15T00:54:45;7.97;;;6.57;;
9398;SDS011;4739;49.334;8.792;2022-11-15T00:57:11;11.57;;;6.07;;
9398;SDS011;4739;49.334;8.792;2022-11-15T00:59:36;6.47;;;5.87;;
9398;SDS011;4739;49.334;8.792;2022-11-15T01:02:02;8.37;;;6.07;;
9398;SDS011;4739;49.334;8.792;2022-11-15T01:04:27;7.33;;;5.73;;
9398;SDS011;4739;49.334;8.792;2022-11-15T01:06:53;7.30;;;6.53;;
9398;SDS011;4739;49.334;8.792;2022-11-15T01:09:19;8.90;;;7.33;;
9398;SDS011;4739;49.334;8.792;2022-11-15T01:11:45;7.30;;;5.70;;
9398;SDS011;4739;49.334;8.792;2022-11-15T01:14:10;6.30;;;5.70;;
9398;SDS011;4739;49.334;8.792;2022-11-15T01:16:36;6.47;;;5.57;;
9398;SDS011;4739;49.334;8.792;2022-11-15T01:19:02;5.93;;;5.30;;
9398;SDS011;4739;49.334;8.792;2022-11-15T01:21:28;7.03;;;6.37;;
9398;SDS011;4739;49.334;8.792;2022-11-15T01:23:54;6.40;;;5.80;;
9398;SDS011;4739;49.334;8.792;2022-11-15T01:26:21;6.87;;;5.50;;
9398;SDS011;4739;49.334;8.792;2022-11-15T01:28:47;6.37;;;5.20;;
9398;SDS011;4739;49.334;8.792;2022-11-15T01:31:14;6.33;;;5.47;;
9398;SDS011;4739;49.334;8.792;2022-11-15T01:33:41;7.13;;;6.40;;
9398;SDS011;4739;49.334;8.792;2022-11-15T01:36:08;8.50;;;6.03;;
9398;SDS011;4739;49.334;8.792;2022-11-15T01:38:39;7.13;;;5.80;;
9398;SDS011;4739;49.334;8.792;2022-11-15T01:41:04;6.43;;;5.83;;
9398;SDS011;4739;49.334;8.792;2022-11-15T01:43:32;7.10;;;6.40;;
9398;SDS011;4739;49.334;8.792;2022-11-15T01:48:39;8.27;;;7.40;;
9398;SDS011;4739;49.334;8.792;2022-11-15T01:51:06;8.70;;;7.80;;
9398;SDS011;4739;49.334;8.792;2022-11-15T01:53:34;8.10;;;7.30;;
9398;SDS011;4739;49.334;8.792;2022-11-15T01:56:03;8.90;;;7.77;;
9398;SDS011;4739;49.334;8.792;2022-11-15T01:58:32;8.07;;;7.27;;
9398;SDS011;4739;49.334;8.792;2022-11-15T02:00:58;10.73;;;7.80;;
9398;SDS011;4739;49.334;8.792;2022-11-15T02:03:26;8.43;;;7.43;;
9398;SDS011;4739;49.334;8.792;2022-11-15T02:05:56;9.97;;;7.57;;
9398;SDS011;4739;49.334;8.792;2022-11-15T02:08:22;11.33;;;8.13;;
9398;SDS011;4739;49.334;8.792;2022-11-15T02:10:48;10.07;;;7.57;;
9398;SDS011;4739;49.334;8.792;2022-11-15T02:13:14;7.00;;;6.30;;
9398;SDS011;4739;49.334;8.792;2022-11-15T02:15:46;7.43;;;6.33;;
9398;SDS011;4739;49.334;8.792;2022-11-15T02:18:27;7.47;;;6.77;;
9398;SDS011;4739;49.334;8.792;2022-11-15T02:26:31;7.07;;;6.10;;
9398;SDS011;4739;49.334;8.792;2022-11-15T02:29:22;6.77;;;5.60;;
9398;SDS011;4739;49.334;8.792;2022-11-15T02:32:22;7.13;;;6.23;;
9398;SDS011;4739;49.334;8.792;2022-11-15T02:35:09;6.47;;;5.83;;
9398;SDS011;4739;49.334;8.792;2022-11-15T02:37:48;6.10;;;5.50;;
9398;SDS011;4739;49.334;8.792;2022-11-15T02:43:10;7.50;;;5.60;;
9398;SDS011;4739;49.334;8.792;2022-11-15T02:46:09;5.47;;;4.97;;
9398;SDS011;4739;49.334;8.792;2022-11-15T02:48:38;5.83;;;5.27;;
9398;SDS011;4739;49.334;8.792;2022-11-15T02:51:04;5.73;;;5.23;;
9398;SDS011;4739;49.334;8.792;2022-11-15T02:53:31;6.50;;;5.90;;
9398;SDS011;4739;49.334;8.792;2022-11-15T02:55:56;8.10;;;5.70;;
9398;SDS011;4739;49.334;8.792;2022-11-15T02:58:28;6.77;;;6.03;;
9398;SDS011;4739;49.334;8.792;2022-11-15T03:01:21;8.23;;;5.87;;
9398;SDS011;4739;49.334;8.792;2022-11-15T03:09:24;6.30;;;5.70;;
9398;SDS011;4739;49.334;8.792;2022-11-15T03:11:58;13.83;;;5.50;;
9398;SDS011;4739;49.334;8.792;2022-11-15T03:14:36;5.30;;;4.80;;
9398;SDS011;4739;49.334;8.792;2022-11-15T03:17:26;5.93;;;5.17;;
9398;SDS011;4739;49.334;8.792;2022-11-15T03:19:56;7.10;;;5.23;;
9398;SDS011;4739;49.334;8.792;2022-11-15T03:22:24;6.23;;;4.60;;
9398;SDS011;4739;49.334;8.792;2022-11-15T03:24:56;6.10;;;5.40;;
9398;SDS011;4739;49.334;8.792;2022-11-15T03:27:27;7.10;;;5.57;;
9398;SDS011;4739;49.334;8.792;2022-11-15T03:29:58;6.80;;;6.20;;
9398;SDS011;4739;49.334;8.792;2022-11-15T03:32:27;5.90;;;5.30;;
9398;SDS011;4739;49.334;8.792;2022-11-15T03:37:32;7.43;;;5.97;;
9398;SDS011;4739;49.334;8.792;2022-11-15T03:40:02;7.37;;;6.43;;
9398;SDS011;4739;49.334;8.792;2022-11-15T03:42:48;6.07;;;5.47;;
9398;SDS011;4739;49.334;8.792;2022-11-15T03:45:29;6.97;;;6.27;;
9398;SDS011;4739;49.334;8.792;2022-11-15T03:47:59;6.90;;;6.20;;
9398;SDS011;4739;49.334;8.792;2022-11-15T03:50:29;6.40;;;5.63;;
9398;SDS011;4739;49.334;8.792;2022-11-15T03:52:55;8.57;;;5.83;;
9398;SDS011;4739;49.334;8.792;2022-11-15T03:55:22;6.37;;;5.57;;
9398;SDS011;4739;49.334;8.792;2022-11-15T03:57:49;6.50;;;5.90;;
9398;SDS011;4739;49.334;8.792;2022-11-15T04:00:17;7.20;;;5.63;;
9398;SDS011;4739;49.334;8.792;2022-11-15T04:02:43;6.73;;;5.90;;
9398;SDS011;4739;49.334;8.792;2022-11-15T04:05:09;6.23;;;5.63;;
9398;SDS011;4739;49.334;8.792;2022-11-15T04:07:34;6.40;;;5.80;;
9398;SDS011;4739;49.334;8.792;2022-11-15T04:10:00;6.33;;;5.73;;
9398;SDS011;4739;49.334;8.792;2022-11-15T04:12:35;5.93;;;5.33;;
9398;SDS011;4739;49.334;8.792;2022-11-15T04:15:06;5.70;;;5.20;;
9398;SDS011;4739;49.334;8.792;2022-11-15T04:17:34;6.13;;;5.10;;
9398;SDS011;4739;49.334;8.792;2022-11-15T04:20:05;6.23;;;4.77;;
9398;SDS011;4739;49.334;8.792;2022-11-15T04:23:00;5.40;;;4.90;;
9398;SDS011;4739;49.334;8.792;2022-11-15T04:25:46;8.80;;;7.90;;
9398;SDS011;4739;49.334;8.792;2022-11-15T04:28:15;12.87;;;11.00;;
9398;SDS011;4739;49.334;8.792;2022-11-15T04:30:41;12.37;;;10.97;;
9398;SDS011;4739;49.334;8.792;2022-11-15T04:33:07;12.57;;;10.67;;
9398;SDS011;4739;49.334;8.792;2022-11-15T04:38:07;35.60;;;26.40;;
9398;SDS011;4739;49.334;8.792;2022-11-15T04:40:34;22.67;;;18.47;;
9398;SDS011;4739;49.334;8.792;2022-11-15T04:43:00;14.80;;;12.70;;
9398;SDS011;4739;49.334;8.792;2022-11-15T04:45:26;13.87;;;11.50;;
9398;SDS011;4739;49.334;8.792;2022-11-15T04:47:51;10.47;;;9.23;;
9398;SDS011;4739;49.334;8.792;2022-11-15T04:50:17;7.77;;;6.47;;
9398;SDS011;4739;49.334;8.792;2022-11-15T04:52:48;9.20;;;7.40;;
9398;SDS011;4739;49.334;8.792;2022-11-15T04:55:16;7.80;;;7.00;;
9398;SDS011;4739;49.334;8.792;2022-11-15T04:57:42;12.40;;;11.10;;
9398;SDS011;4739;49.334;8.792;2022-11-15T05:00:09;9.30;;;7.30;;
9398;SDS011;4739;49.334;8.792;2022-11-15T05:02:37;8.90;;;8.10;;
9398;SDS011;4739;49.334;8.792;2022-11-15T05:05:21;10.60;;;9.27;;
9398;SDS011;4739;49.334;8.792;2022-11-15T05:07:46;10.73;;;9.70;;
9398;SDS011;4739;49.334;8.792;2022-11-15T05:10:12;10.10;;;9.07;;
9398;SDS011;4739;49.334;8.792;2022-11-15T05:12:38;10.67;;;9.63;;
9398;SDS011;4739;49.334;8.792;2022-11-15T05:15:03;8.77;;;7.90;;
9398;SDS011;4739;49.334;8.792;2022-11-15T05:17:29;8.60;;;7.67;;
9398;SDS011;4739;49.334;8.792;2022-11-15T05:19:55;9.17;;;8.20;;
9398;SDS011;4739;49.334;8.792;2022-11-15T05:22:21;8.10;;;7.30;;
9398;SDS011;4739;49.334;8.792;2022-11-15T05:24:46;9.50;;;8.57;;
9398;SDS011;4739;49.334;8.792;2022-11-15T05:27:12;9.30;;;8.40;;
9398;SDS011;4739;49.334;8.792;2022-11-15T05:29:38;8.37;;;7.53;;
9398;SDS011;4739;49.334;8.792;2022-11-15T05:32:04;8.43;;;7.63;;
9398;SDS011;4739;49.334;8.792;2022-11-15T05:34:31;7.70;;;7.00;;
9398;SDS011;4739;49.334;8.792;2022-11-15T05:36:57;8.13;;;6.70;;
9398;SDS011;4739;49.334;8.792;2022-11-15T05:39:24;7.23;;;6.63;;
9398;SDS011;4739;49.334;8.792;2022-11-15T05:41:54;6.43;;;5.80;;
9398;SDS011;4739;49.334;8.792;2022-11-15T05:44:24;6.87;;;6.27;;
9398;SDS011;4739;49.334;8.792;2022-11-15T05:46:51;6.90;;;6.20;;
9398;SDS011;4739;49.334;8.792;2022-11-15T05:49:20;6.63;;;6.03;;
9398;SDS011;4739;49.334;8.792;2022-11-15T05:51:49;8.63;;;5.93;;
9398;SDS011;4739;49.334;8.792;2022-11-15T05:54:18;6.97;;;5.40;;
9398;SDS011;4739;49.334;8.792;2022-11-15T05:56:46;7.50;;;5.40;;
9398;SDS011;4739;49.334;8.792;2022-11-15T05:59:12;6.53;;;5.93;;
9398;SDS011;4739;49.334;8.792;2022-11-15T06:01:38;5.70;;;5.20;;
9398;SDS011;4739;49.334;8.792;2022-11-15T06:04:04;6.00;;;5.50;;
9398;SDS011;4739;49.334;8.792;2022-11-15T06:06:30;6.03;;;5.43;;
9398;SDS011;4739;49.334;8.792;2022-11-15T06:08:55;7.13;;;5.60;;
9398;SDS011;4739;49.334;8.792;2022-11-15T06:11:21;6.30;;;5.70;;
9398;SDS011;4739;49.334;8.792;2022-11-15T06:13:46;6.50;;;5.80;;
9398;SDS011;4739;49.334;8.792;2022-11-15T06:16:12;6.20;;;5.60;;
9398;SDS011;4739;49.334;8.792;2022-11-15T06:18:38;6.80;;;6.10;;
9398;SDS011;4739;49.334;8.792;2022-11-15T06:21:03;9.00;;;7.77;;
9398;SDS011;4739;49.334;8.792;2022-11-15T06:23:32;9.60;;;7.30;;
9398;SDS011;4739;49.334;8.792;2022-11-15T06:25:59;8.40;;;7.60;;
9398;SDS011;4739;49.334;8.792;2022-11-15T06:28:29;8.37;;;7.57;;
9398;SDS011;4739;49.334;8.792;2022-11-15T06:30:55;8.07;;;7.20;;
9398;SDS011;4739;49.334;8.792;2022-11-15T06:33:22;8.00;;;7.20;;
9398;SDS011;4739;49.334;8.792;2022-11-15T06:35:47;8.00;;;7.20;;
9398;SDS011;4739;49.334;8.792;2022-11-15T06:38:13;9.33;;;7.37;;
9398;SDS011;4739;49.334;8.792;2022-11-15T06:40:38;9.10;;;7.30;;
9398;SDS011;4739;49.334;8.792;2022-11-15T06:43:05;8.87;;;7.23;;
9398;SDS011;4739;49.334;8.792;2022-11-15T06:45:31;7.87;;;7.07;;
9398;SDS011;4739;49.334;8.792;2022-11-15T06:47:57;9.10;;;8.30;;
9398;SDS011;4739;49.334;8.792;2022-11-15T06:50:23;8.73;;;7.33;;
9398;SDS011;4739;49.334;8.792;2022-11-15T06:52:49;8.97;;;8.13;;
9398;SDS011;4739;49.334;8.792;2022-11-15T06:55:15;10.93;;;8.43;;
9398;SDS011;4739;49.334;8.792;2022-11-15T06:57:50;9.97;;;8.93;;
9398;SDS011;4739;49.334;8.792;2022-11-15T07:00:17;9.70;;;8.63;;
9398;SDS011;4739;49.334;8.792;2022-11-15T07:02:44;10.33;;;9.00;;
9398;SDS011;4739;49.334;8.792;2022-11-15T07:05:10;9.63;;;8.63;;
9398;SDS011;4739;49.334;8.792;2022-11-15T07:07:36;9.23;;;8.33;;
9398;SDS011;4739;49.334;8.792;2022-11-15T07:10:02;8.77;;;7.87;;
9398;SDS011;4739;49.334;8.792;2022-11-15T07:12:28;10.50;;;8.23;;
9398;SDS011;4739;49.334;8.792;2022-11-15T07:14:54;8.63;;;7.83;;
9398;SDS011;4739;49.334;8.792;2022-11-15T07:17:19;9.47;;;8.57;;
9398;SDS011;4739;49.334;8.792;2022-11-15T07:19:45;10.80;;;9.07;;
9398;SDS011;4739;49.334;8.792;2022-11-15T07:22:10;9.90;;;8.27;;
9398;SDS011;4739;49.334;8.792;2022-11-15T07:24:36;8.43;;;7.63;;
9398;SDS011;4739;49.334;8.792;2022-11-15T07:27:01;8.73;;;7.90;;
9398;SDS011;4739;49.334;8.792;2022-11-15T07:29:27;12.87;;;8.63;;
9398;SDS011;4739;49.334;8.792;2022-11-15T07:31:53;17.80;;;8.40;;
9398;SDS011;4739;49.334;8.792;2022-11-15T07:34:18;15.83;;;9.07;;
9398;SDS011;4739;49.334;8.792;2022-11-15T07:36:44;16.57;;;8.93;;
9398;SDS011;4739;49.334;8.792;2022-11-15T07:39:10;19.03;;;9.10;;
9398;SDS011;4739;49.334;8.792;2022-11-15T07:41:37;17.47;;;9.20;;
9398;SDS011;4739;49.334;8.792;2022-11-15T07:44:03;18.00;;;8.77;;
9398;SDS011;4739;49.334;8.792;2022-11-15T07:46:29;14.97;;;10.40;;
9398;SDS011;4739;49.334;8.792;2022-11-15T07:48:55;16.03;;;9.20;;
9398;SDS011;4739;49.334;8.792;2022-11-15T07:51:21;14.10;;;8.80;;
9398;SDS011;4739;49.334;8.792;2022-11-15T07:53:46;11.77;;;9.03;;
9398;SDS011;4739;49.334;8.792;2022-11-15T07:56:12;9.50;;;8.53;;
9398;SDS011;4739;49.334;8.792;2022-11-15T07:58:38;12.43;;;9.23;;
9398;SDS011;4739;49.334;8.792;2022-11-15T08:01:04;11.33;;;8.87;;
9398;SDS011;4739;49.334;8.792;2022-11-15T08:03:31;10.63;;;8.67;;
9398;SDS011;4739;49.334;8.792;2022-11-15T08:05:58;7.90;;;7.10;;
9398;SDS011;4739;49.334;8.792;2022-11-15T08:08:23;13.40;;;8.33;;
9398;SDS011;4739;49.334;8.792;2022-11-15T08:10:49;11.90;;;10.50;;
9398;SDS011;4739;49.334;8.792;2022-11-15T08:13:15;11.73;;;9.27;;
9398;SDS011;4739;49.334;8.792;2022-11-15T08:15:40;10.87;;;8.33;;
9398;SDS011;4739;49.334;8.792;2022-11-15T08:18:12;8.37;;;6.63;;
9398;SDS011;4739;49.334;8.792;2022-11-15T08:20:40;7.00;;;5.50;;
9398;SDS011;4739;49.334;8.792;2022-11-15T08:23:06;7.80;;;6.07;;
9398;SDS011;4739;49.334;8.792;2022-11-15T08:25:32;6.47;;;5.80;;
9398;SDS011;4739;49.334;8.792;2022-11-15T08:28:00;6.87;;;5.90;;
9398;SDS011;4739;49.334;8.792;2022-11-15T08:30:33;9.97;;;7.10;;
9398;SDS011;4739;49.334;8.792;2022-11-15T08:33:01;6.07;;;5.47;;
9398;SDS011;4739;49.334;8.792;2022-11-15T08:35:27;6.17;;;5.43;;
9398;SDS011;4739;49.334;8.792;2022-11-15T08:38:04;6.40;;;5.30;;
9398;SDS011;4739;49.334;8.792;2022-11-15T08:40:30;6.23;;;5.57;;
9398;SDS011;4739;49.334;8.792;2022-11-15T08:42:55;7.17;;;6.10;;
9398;SDS011;4739;49.334;8.792;2022-11-15T08:45:21;6.53;;;5.80;;
9398;SDS011;4739;49.334;8.792;2022-11-15T08:47:47;6.23;;;5.37;;
9398;SDS011;4739;49.334;8.792;2022-11-15T08:50:12;6.17;;;5.57;;
9398;SDS011;4739;49.334;8.792;2022-11-15T08:52:38;6.10;;;5.50;;
9398;SDS011;4739;49.334;8.792;2022-11-15T08:55:04;6.70;;;6.03;;
9398;SDS011;4739;49.334;8.792;2022-11-15T08:57:30;10.10;;;8.90;;
9398;SDS011;4739;49.334;8.792;2022-11-15T08:59:56;10.53;;;9.53;;
9398;SDS011;4739;49.334;8.792;2022-11-15T09:02:22;13.07;;;11.77;;
9398;SDS011;4739;49.334;8.792;2022-11-15T09:04:48;12.30;;;9.50;;
9398;SDS011;4739;49.334;8.792;2022-11-15T09:07:13;10.77;;;9.77;;
9398;SDS011;4739;49.334;8.792;2022-11-15T09:09:39;10.67;;;9.57;;
9398;SDS011;4739;49.334;8.792;2022-11-15T09:12:05;10.10;;;9.10;;
9398;SDS011;4739;49.334;8.792;2022-11-15T09:14:32;11.43;;;10.07;;
9398;SDS011;4739;49.334;8.792;2022-11-15T09:16:58;8.40;;;7.60;;
9398;SDS011;4739;49.334;8.792;2022-11-15T09:19:24;8.37;;;6.50;;
9398;SDS011;4739;49.334;8.792;2022-11-15T09:21:50;7.90;;;7.20;;
9398;SDS011;4739;49.334;8.792;2022-11-15T09:24:16;6.77;;;6.17;;
9398;SDS011;4739;49.334;8.792;2022-11-15T09:26:42;6.57;;;6.07;;
9398;SDS011;4739;49.334;8.792;2022-11-15T09:29:08;6.87;;;6.27;;
9398;SDS011;4739;49.334;8.792;2022-11-15T09:31:34;7.37;;;6.60;;
9398;SDS011;4739;49.334;8.792;2022-11-15T09:33:59;8.77;;;6.87;;
9398;SDS011;4739;49.334;8.792;2022-11-15T09:36:25;7.03;;;6.33;;
9398;SDS011;4739;49.334;8.792;2022-11-15T09:38:50;5.70;;;5.13;;
9398;SDS011;4739;49.334;8.792;2022-11-15T09:46:56;5.60;;;5.10;;
9398;SDS011;4739;49.334;8.792;2022-11-15T09:49:39;6.57;;;5.87;;
9398;SDS011;4739;49.334;8.792;2022-11-15T09:52:06;6.50;;;5.90;;
9398;SDS011;4739;49.334;8.792;2022-11-15T09:54:41;9.43;;;5.43;;
9398;SDS011;4739;49.334;8.792;2022-11-15T10:06:00;5.07;;;4.57;;
9398;SDS011;4739;49.334;8.792;2022-11-15T10:08:31;6.77;;;5.10;;
9398;SDS011;4739;49.334;8.792;2022-11-15T10:11:11;5.50;;;4.83;;
9398;SDS011;4739;49.334;8.792;2022-11-15T10:13:43;4.87;;;4.20;;
9398;SDS011;4739;49.334;8.792;2022-11-15T10:24:31;7.93;;;5.90;;
9398;SDS011;4739;49.334;8.792;2022-11-15T10:27:04;6.27;;;5.23;;
9398;SDS011;4739;49.334;8.792;2022-11-15T10:29:40;5.83;;;5.23;;
9398;SDS011;4739;49.334;8.792;2022-11-15T10:32:15;6.00;;;4.33;;
9398;SDS011;4739;49.334;8.792;2022-11-15T10:34:43;5.43;;;4.73;;
9398;SDS011;4739;49.334;8.792;2022-11-15T10:37:08;6.17;;;4.13;;
9398;SDS011;4739;49.334;8.792;2022-11-15T10:39:34;5.47;;;3.87;;
9398;SDS011;4739;49.334;8.792;2022-11-15T10:42:14;4.20;;;3.77;;
9398;SDS011;4739;49.334;8.792;2022-11-15T10:44:50;4.67;;;3.93;;
9398;SDS011;4739;49.334;8.792;2022-11-15T10:47:37;4.37;;;3.97;;
9398;SDS011;4739;49.334;8.792;2022-11-15T10:50:25;5.10;;;3.87;;
9398;SDS011;4739;49.334;8.792;2022-11-15T10:52:55;7.10;;;4.47;;
9398;SDS011;4739;49.334;8.792;2022-11-15T10:55:23;7.03;;;4.93;;
9398;SDS011;4739;49.334;8.792;2022-11-15T10:57:52;6.63;;;5.90;;
9398;SDS011;4739;49.334;8.792;2022-11-15T11:02:55;7.13;;;4.57;;
9398;SDS011;4739;49.334;8.792;2022-11-15T11:05:35;8.70;;;4.37;;
9398;SDS011;4739;49.334;8.792;2022-11-15T11:10:39;4.20;;;3.80;;
9398;SDS011;4739;49.334;8.792;2022-11-15T11:15:46;5.20;;;3.80;;
9398;SDS011;4739;49.334;8.792;2022-11-15T11:18:18;5.73;;;3.73;;
9398;SDS011;4739;49.334;8.792;2022-11-15T11:20:58;5.27;;;3.77;;
9398;SDS011;4739;49.334;8.792;2022-11-15T11:23:32;5.37;;;3.40;;
9398;SDS011;4739;49.334;8.792;2022-11-15T11:28:59;6.37;;;4.37;;
9398;SDS011;4739;49.334;8.792;2022-11-15T11:45:05;5.97;;;4.50;;
9398;SDS011;4739;49.334;8.792;2022-11-15T11:47:40;4.70;;;4.17;;
9398;SDS011;4739;49.334;8.792;2022-11-15T11:50:29;5.63;;;4.07;;
9398;SDS011;4739;49.334;8.792;2022-11-15T11:53:21;5.57;;;3.97;;
9398;SDS011;4739;49.334;8.792;2022-11-15T11:55:54;9.37;;;4.40;;
9398;SDS011;4739;49.334;8.792;2022-11-15T11:58:33;9.80;;;4.37;;
9398;SDS011;4739;49.334;8.792;2022-11-15T12:17:35;14.30;;;4.53;;
9398;SDS011;4739;49.334;8.792;2022-11-15T12:22:43;14.30;;;4.33;;
9398;SDS011;4739;49.334;8.792;2022-11-15T12:25:27;11.40;;;4.30;;
9398;SDS011;4739;49.334;8.792;2022-11-15T12:28:08;10.27;;;4.10;;
9398;SDS011;4739;49.334;8.792;2022-11-15T12:30:40;14.57;;;4.47;;
9398;SDS011;4739;49.334;8.792;2022-11-15T12:36:00;11.80;;;4.13;;
9398;SDS011;4739;49.334;8.792;2022-11-15T12:41:31;16.37;;;4.87;;
9398;SDS011;4739;49.334;8.792;2022-11-15T12:43:57;11.87;;;4.47;;
9398;SDS011;4739;49.334;8.792;2022-11-15T12:48:58;12.37;;;4.43;;
9398;SDS011;4739;49.334;8.792;2022-11-15T13:02:36;12.40;;;5.10;;
9398;SDS011;4739;49.334;8.792;2022-11-15T13:17:39;13.63;;;4.43;;
9398;SDS011;4739;49.334;8.792;2022-11-15T13:22:48;9.00;;;3.97;;
9398;SDS011;4739;49.334;8.792;2022-11-15T13:28:17;8.80;;;3.57;;
9398;SDS011;4739;49.334;8.792;2022-11-15T13:33:19;9.33;;;3.97;;
9398;SDS011;4739;49.334;8.792;2022-11-15T13:36:23;10.30;;;4.23;;
9398;SDS011;4739;49.334;8.792;2022-11-15T13:41:50;5.47;;;4.00;;
9398;SDS011;4739;49.334;8.792;2022-11-15T13:44:22;4.77;;;4.13;;
9398;SDS011;4739;49.334;8.792;2022-11-15T13:47:00;7.50;;;4.07;;
9398;SDS011;4739;49.334;8.792;2022-11-15T13:49:38;7.27;;;4.70;;
9398;SDS011;4739;49.334;8.792;2022-11-15T13:52:06;5.07;;;4.37;;
9398;SDS011;4739;49.334;8.792;2022-11-15T13:54:43;6.60;;;4.33;;
9398;SDS011;4739;49.334;8.792;2022-11-15T13:57:24;5.43;;;4.13;;
9398;SDS011;4739;49.334;8.792;2022-11-15T13:59:57;6.80;;;3.80;;
9398;SDS011;4739;49.334;8.792;2022-11-15T14:02:28;7.67;;;4.20;;
9398;SDS011;4739;49.334;8.792;2022-11-15T14:05:02;5.83;;;3.90;;
9398;SDS011;4739;49.334;8.792;2022-11-15T14:10:43;4.63;;;3.57;;
9398;SDS011;4739;49.334;8.792;2022-11-15T14:13:26;6.13;;;3.77;;
9398;SDS011;4739;49.334;8.792;2022-11-15T14:15:53;20.00;;;5.13;;
9398;SDS011;4739;49.334;8.792;2022-11-15T14:21:06;11.60;;;4.43;;
9398;SDS011;4739;49.334;8.792;2022-11-15T14:23:32;11.27;;;5.17;;
9398;SDS011;4739;49.334;8.792;2022-11-15T14:25:58;7.33;;;4.03;;
9398;SDS011;4739;49.334;8.792;2022-11-15T14:30:51;14.20;;;5.00;;
9398;SDS011;4739;49.334;8.792;2022-11-15T14:35:55;9.70;;;4.53;;
9398;SDS011;4739;49.334;8.792;2022-11-15T14:38:22;10.53;;;5.07;;
9398;SDS011;4739;49.334;8.792;2022-11-15T14:40:48;11.23;;;4.63;;
9398;SDS011;4739;49.334;8.792;2022-11-15T14:43:14;10.20;;;4.40;;
9398;SDS011;4739;49.334;8.792;2022-11-15T14:45:40;7.67;;;4.37;;
9398;SDS011;4739;49.334;8.792;2022-11-15T14:48:06;12.07;;;4.67;;
9398;SDS011;4739;49.334;8.792;2022-11-15T14:50:32;10.37;;;3.97;;
9398;SDS011;4739;49.334;8.792;2022-11-15T14:52:58;8.60;;;4.33;;
9398;SDS011;4739;49.334;8.792;2022-11-15T14:55:31;16.03;;;4.70;;
9398;SDS011;4739;49.334;8.792;2022-11-15T14:58:00;13.37;;;5.03;;
9398;SDS011;4739;49.334;8.792;2022-11-15T15:00:28;11.20;;;4.80;;
9398;SDS011;4739;49.334;8.792;2022-11-15T15:02:57;11.23;;;4.33;;
9398;SDS011;4739;49.334;8.792;2022-11-15T15:07:50;13.53;;;4.60;;
9398;SDS011;4739;49.334;8.792;2022-11-15T15:10:18;13.53;;;4.30;;
9398;SDS011;4739;49.334;8.792;2022-11-15T15:12:44;10.77;;;4.47;;
9398;SDS011;4739;49.334;8.792;2022-11-15T15:15:16;11.57;;;4.40;;
9398;SDS011;4739;49.334;8.792;2022-11-15T15:17:48;15.73;;;4.20;;
9398;SDS011;4739;49.334;8.792;2022-11-15T15:20:14;13.17;;;4.90;;
9398;SDS011;4739;49.334;8.792;2022-11-15T15:22:39;13.90;;;4.73;;
9398;SDS011;4739;49.334;8.792;2022-11-15T15:25:18;8.60;;;4.50;;
9398;SDS011;4739;49.334;8.792;2022-11-15T15:27:46;10.70;;;4.47;;
9398;SDS011;4739;49.334;8.792;2022-11-15T15:30:12;14.07;;;4.93;;
9398;SDS011;4739;49.334;8.792;2022-11-15T15:32:37;9.73;;;4.53;;
9398;SDS011;4739;49.334;8.792;2022-11-15T15:35:03;11.33;;;5.50;;
9398;SDS011;4739;49.334;8.792;2022-11-15T15:37:29;11.53;;;5.70;;
9398;SDS011;4739;49.334;8.792;2022-11-15T15:39:58;8.53;;;4.90;;
9398;SDS011;4739;49.334;8.792;2022-11-15T15:42:24;13.17;;;5.40;;
9398;SDS011;4739;49.334;8.792;2022-11-15T15:44:49;15.00;;;5.87;;
9398;SDS011;4739;49.334;8.792;2022-11-15T15:47:19;22.37;;;6.03;;
9398;SDS011;4739;49.334;8.792;2022-11-15T15:49:46;21.13;;;6.07;;
9398;SDS011;4739;49.334;8.792;2022-11-15T15:52:13;18.80;;;5.60;;
9398;SDS011;4739;49.334;8.792;2022-11-15T15:54:39;21.57;;;5.77;;
9398;SDS011;4739;49.334;8.792;2022-11-15T15:57:06;20.47;;;5.90;;
9398;SDS011;4739;49.334;8.792;2022-11-15T15:59:32;14.07;;;6.23;;
9398;SDS011;4739;49.334;8.792;2022-11-15T16:01:58;12.50;;;4.90;;
9398;SDS011;4739;49.334;8.792;2022-11-15T16:04:23;11.30;;;6.40;;
9398;SDS011;4739;49.334;8.792;2022-11-15T16:06:49;10.43;;;4.97;;
9398;SDS011;4739;49.334;8.792;2022-11-15T16:09:18;14.80;;;5.30;;
9398;SDS011;4739;49.334;8.792;2022-11-15T16:12:04;19.20;;;5.67;;
9398;SDS011;4739;49.334;8.792;2022-11-15T16:14:30;18.97;;;5.97;;
9398;SDS011;4739;49.334;8.792;2022-11-15T16:16:56;20.37;;;6.13;;
9398;SDS011;4739;49.334;8.792;2022-11-15T16:19:22;17.93;;;5.77;;
9398;SDS011;4739;49.334;8.792;2022-11-15T16:21:47;13.43;;;5.17;;
9398;SDS011;4739;49.334;8.792;2022-11-15T16:24:13;16.73;;;5.20;;
9398;SDS011;4739;49.334;8.792;2022-11-15T16:26:38;7.93;;;4.93;;
9398;SDS011;4739;49.334;8.792;2022-11-15T16:29:04;7.43;;;4.80;;
9398;SDS011;4739;49.334;8.792;2022-11-15T16:31:31;9.00;;;5.30;;
9398;SDS011;4739;49.334;8.792;2022-11-15T16:33:57;11.77;;;5.73;;
9398;SDS011;4739;49.334;8.792;2022-11-15T16:36:24;8.27;;;5.23;;
9398;SDS011;4739;49.334;8.792;2022-11-15T16:38:51;8.03;;;5.00;;
9398;SDS011;4739;49.334;8.792;2022-11-15T16:41:17;11.07;;;4.83;;
9398;SDS011;4739;49.334;8.792;2022-11-15T16:43:46;11.37;;;5.23;;
9398;SDS011;4739;49.334;8.792;2022-11-15T16:46:17;9.73;;;4.77;;
9398;SDS011;4739;49.334;8.792;2022-11-15T16:48:47;8.60;;;5.07;;
9398;SDS011;4739;49.334;8.792;2022-11-15T16:51:13;10.27;;;5.03;;
9398;SDS011;4739;49.334;8.792;2022-11-15T16:53:39;12.80;;;6.50;;
9398;SDS011;4739;49.334;8.792;2022-11-15T16:56:18;9.63;;;5.40;;
9398;SDS011;4739;49.334;8.792;2022-11-15T16:58:45;10.47;;;5.27;;
9398;SDS011;4739;49.334;8.792;2022-11-15T17:01:18;9.93;;;5.00;;
9398;SDS011;4739;49.334;8.792;2022-11-15T17:03:47;14.23;;;4.97;;
9398;SDS011;4739;49.334;8.792;2022-11-15T17:06:13;11.03;;;4.90;;
9398;SDS011;4739;49.334;8.792;2022-11-15T17:08:39;11.00;;;5.17;;
9398;SDS011;4739;49.334;8.792;2022-11-15T17:11:05;9.70;;;5.37;;
9398;SDS011;4739;49.334;8.792;2022-11-15T17:13:32;6.87;;;4.57;;
9398;SDS011;4739;49.334;8.792;2022-11-15T17:18:53;6.67;;;5.20;;
9398;SDS011;4739;49.334;8.792;2022-11-15T17:21:19;7.47;;;5.10;;
9398;SDS011;4739;49.334;8.792;2022-11-15T17:23:46;8.40;;;4.50;;
9398;SDS011;4739;49.334;8.792;2022-11-15T17:26:13;9.73;;;4.60;;
9398;SDS011;4739;49.334;8.792;2022-11-15T17:28:40;9.00;;;4.80;;
9398;SDS011;4739;49.334;8.792;2022-11-15T17:31:06;7.17;;;4.70;;
9398;SDS011;4739;49.334;8.792;2022-11-15T17:33:33;6.80;;;4.57;;
9398;SDS011;4739;49.334;8.792;2022-11-15T17:36:00;8.80;;;5.60;;
9398;SDS011;4739;49.334;8.792;2022-11-15T17:38:27;8.67;;;6.27;;
9398;SDS011;4739;49.334;8.792;2022-11-15T17:41:06;7.20;;;5.23;;
9398;SDS011;4739;49.334;8.792;2022-11-15T17:43:35;7.07;;;4.50;;
9398;SDS011;4739;49.334;8.792;2022-11-15T17:46:03;10.10;;;5.50;;
9398;SDS011;4739;49.334;8.792;2022-11-15T17:48:29;8.37;;;4.53;;